createdAt,value
2023-04-05T00:00:32.575Z,1.90
2023-04-05T00:03:00.630Z,1.90
2023-04-05T00:05:34.192Z,1.90
2023-04-05T00:08:02.287Z,2.00
2023-04-05T00:10:30.698Z,2.10
2023-04-05T00:12:58.445Z,2.10
2023-04-05T00:15:27.496Z,2.20
2023-04-05T00:17:55.367Z,2.20
2023-04-05T00:20:22.335Z,2.20
2023-04-05T00:22:50.890Z,2.30
2023-04-05T00:25:18.455Z,2.30
2023-04-05T00:27:45.475Z,2.30
2023-04-05T00:30:12.769Z,2.30
2023-04-05T00:32:39.637Z,2.30
2023-04-05T00:35:07.335Z,2.30
2023-04-05T00:37:34.514Z,2.30
2023-04-05T00:40:01.416Z,2.20
2023-04-05T00:42:28.097Z,2.20
2023-04-05T00:44:54.758Z,2.10
2023-04-05T00:47:21.718Z,2.10
2023-04-05T00:49:48.436Z,2.10
2023-04-05T00:52:16.080Z,2.00
2023-04-05T00:54:43.680Z,2.00
2023-04-05T00:57:11.065Z,2.00
2023-04-05T00:59:37.996Z,1.90
2023-04-05T01:02:28.500Z,1.90
2023-04-05T01:05:02.593Z,1.90
2023-04-05T01:07:38.219Z,1.90
2023-04-05T01:10:09.911Z,1.90
2023-04-05T01:12:38.270Z,1.80
2023-04-05T01:15:06.079Z,1.80
2023-04-05T01:17:39.105Z,1.80
2023-04-05T01:20:10.277Z,1.80
2023-04-05T01:23:09.902Z,1.80
2023-04-05T01:25:59.993Z,1.80
2023-04-05T01:28:57.676Z,1.80
2023-04-05T01:31:30.451Z,1.70
2023-04-05T01:34:11.346Z,1.70
2023-04-05T01:36:43.589Z,1.70
2023-04-05T01:39:14.190Z,1.60
2023-04-05T01:41:41.313Z,1.60
2023-04-05T01:44:08.096Z,1.50
2023-04-05T01:46:35.020Z,1.50
2023-04-05T01:49:01.824Z,1.50
2023-04-05T01:51:28.508Z,1.40
2023-04-05T01:53:57.323Z,1.40
2023-04-05T01:56:24.127Z,1.30
2023-04-05T01:58:51.188Z,1.30
2023-04-05T02:01:18.047Z,1.20
2023-04-05T02:03:44.848Z,1.20
2023-04-05T02:06:11.683Z,1.10
2023-04-05T02:08:38.407Z,1.10
2023-04-05T02:11:05.204Z,1.00
2023-04-05T02:13:31.965Z,1.00
2023-04-05T02:15:58.793Z,1.00
2023-04-05T02:18:31.399Z,1.00
2023-04-05T02:21:10.661Z,0.90
2023-04-05T02:23:38.118Z,0.90
2023-04-05T02:26:05.455Z,0.90
2023-04-05T02:28:32.130Z,0.90
2023-04-05T02:30:58.862Z,0.80
2023-04-05T02:33:25.905Z,0.80
2023-04-05T02:35:53.955Z,0.70
2023-04-05T02:38:20.715Z,0.70
2023-04-05T02:40:49.256Z,0.70
2023-04-05T02:43:16.516Z,0.60
2023-04-05T02:45:44.389Z,0.60
2023-04-05T02:48:13.038Z,0.50
2023-04-05T02:50:39.896Z,0.50
2023-04-05T02:53:06.821Z,0.50
2023-04-05T02:55:34.161Z,0.50
2023-04-05T02:58:01.571Z,0.50
2023-04-05T03:00:28.985Z,0.50
2023-04-05T03:02:56.673Z,0.50
2023-04-05T03:05:23.561Z,0.50
2023-04-05T03:07:52.208Z,0.50
2023-04-05T03:10:22.473Z,0.50
2023-04-05T03:12:51.433Z,0.50
2023-04-05T03:15:18.210Z,0.50
2023-04-05T03:17:45.938Z,0.50
2023-04-05T03:20:13.453Z,0.50
2023-04-05T03:22:41.035Z,0.40
2023-04-05T03:25:07.908Z,0.40
2023-04-05T03:27:35.350Z,0.40
2023-04-05T03:30:02.270Z,0.40
2023-04-05T03:32:29.066Z,0.40
2023-04-05T03:34:55.876Z,0.30
2023-04-05T03:37:22.619Z,0.30
2023-04-05T03:39:49.390Z,0.30
2023-04-05T03:42:16.446Z,0.20
2023-04-05T03:44:43.259Z,0.20
2023-04-05T03:47:10.172Z,0.10
2023-04-05T03:49:36.838Z,0.10
2023-04-05T03:52:03.815Z,0.10
2023-04-05T03:54:30.597Z,0.00
2023-04-05T03:56:57.399Z,0.00
2023-04-05T03:59:24.145Z,-0.10
2023-04-05T04:01:51.194Z,-0.10
2023-04-05T04:04:17.924Z,-0.20
2023-04-05T04:06:44.675Z,-0.20
2023-04-05T04:09:11.459Z,-0.20
2023-04-05T04:11:38.157Z,-0.20
2023-04-05T04:14:04.849Z,-0.30
2023-04-05T04:16:31.511Z,-0.30
2023-04-05T04:18:58.202Z,-0.30
2023-04-05T04:21:25.399Z,-0.30
2023-04-05T04:23:53.066Z,-0.30
2023-04-05T04:26:26.829Z,-0.30
2023-04-05T04:28:53.882Z,-0.30
2023-04-05T04:31:21.514Z,-0.40
2023-04-05T04:33:51.508Z,-0.40
2023-04-05T04:36:35.107Z,-0.40
2023-04-05T04:39:05.798Z,-0.40
2023-04-05T04:41:35.964Z,-0.40
2023-04-05T04:44:03.064Z,-0.40
2023-04-05T04:46:34.856Z,-0.40
2023-04-05T04:49:06.007Z,-0.40
2023-04-05T04:51:33.372Z,-0.40
2023-04-05T04:54:00.195Z,-0.50
2023-04-05T04:56:27.479Z,-0.40
2023-04-05T04:58:57.602Z,-0.50
2023-04-05T05:01:25.230Z,-0.50
2023-04-05T05:03:52.489Z,-0.50
2023-04-05T05:06:19.650Z,-0.50
2023-04-05T05:08:49.149Z,-0.50
2023-04-05T05:11:15.885Z,-0.50
2023-04-05T05:13:42.577Z,-0.50
2023-04-05T05:16:09.778Z,-0.50
2023-04-05T05:18:36.574Z,-0.40
2023-04-05T05:21:03.319Z,-0.40
2023-04-05T05:23:30.188Z,-0.40
2023-04-05T05:26:00.406Z,-0.30
2023-04-05T05:28:27.525Z,-0.30
2023-04-05T05:30:54.404Z,-0.20
2023-04-05T05:33:21.281Z,-0.20
2023-04-05T05:35:51.608Z,-0.10
2023-04-05T05:38:19.010Z,-0.10
2023-04-05T05:40:45.789Z,0.00
2023-04-05T05:43:12.558Z,0.10
2023-04-05T05:45:42.298Z,0.20
2023-04-05T05:48:09.072Z,0.30
2023-04-05T05:50:35.924Z,0.40
2023-04-05T05:53:02.673Z,0.40
2023-04-05T05:55:29.355Z,0.50
2023-04-05T05:57:56.135Z,0.60
2023-04-05T06:00:23.151Z,0.70
2023-04-05T06:02:50.236Z,0.80
2023-04-05T06:05:17.208Z,0.90
2023-04-05T06:07:43.956Z,1.00
2023-04-05T06:10:12.579Z,1.20
2023-04-05T06:12:39.306Z,1.30
2023-04-05T06:15:06.628Z,1.40
2023-04-05T06:17:34.212Z,1.50
2023-04-05T06:20:01.039Z,1.60
2023-04-05T06:22:28.802Z,1.80
2023-04-05T06:24:55.831Z,1.80
2023-04-05T06:27:22.569Z,1.90
2023-04-05T06:29:49.352Z,2.00
2023-04-05T06:32:16.095Z,2.10
2023-04-05T06:34:42.881Z,2.20
2023-04-05T06:37:09.582Z,2.30
2023-04-05T06:39:36.952Z,2.40
2023-04-05T06:42:03.717Z,2.50
2023-04-05T06:44:30.502Z,2.60
2023-04-05T06:46:57.219Z,2.70
2023-04-05T06:49:23.952Z,2.80
2023-04-05T06:51:50.810Z,2.80
2023-04-05T06:54:17.848Z,2.90
2023-04-05T06:56:44.527Z,3.10
2023-04-05T06:59:11.240Z,3.20
2023-04-05T07:01:38.074Z,3.30
2023-04-05T07:04:05.026Z,3.40
2023-04-05T07:06:34.703Z,3.50
2023-04-05T07:09:02.070Z,3.60
2023-04-05T07:11:28.841Z,3.70
2023-04-05T07:13:55.599Z,3.80
2023-04-05T07:16:23.619Z,4.00
2023-04-05T07:18:51.159Z,4.10
2023-04-05T07:21:17.891Z,4.20
2023-04-05T07:23:44.587Z,4.30
2023-04-05T07:26:12.444Z,4.40
2023-04-05T07:28:39.242Z,4.60
2023-04-05T07:31:07.132Z,4.70
2023-04-05T07:33:34.314Z,4.90
2023-04-05T07:36:01.176Z,5.00
2023-04-05T07:38:29.704Z,5.20
2023-04-05T07:41:03.550Z,5.30
2023-04-05T07:43:30.470Z,5.40
2023-04-05T07:46:04.420Z,5.60
2023-04-05T07:48:31.425Z,5.70
2023-04-05T07:51:07.053Z,5.80
2023-04-05T07:53:34.115Z,6.00
2023-04-05T07:56:12.150Z,6.10
2023-04-05T07:58:42.250Z,6.30
2023-04-05T08:01:11.193Z,6.40
2023-04-05T08:03:40.449Z,6.50
2023-04-05T08:06:15.040Z,6.60
2023-04-05T08:08:45.872Z,6.70
2023-04-05T08:11:13.262Z,6.90
2023-04-05T08:13:43.824Z,7.00
2023-04-05T08:16:11.495Z,7.10
2023-04-05T08:18:38.815Z,7.20
2023-04-05T08:21:05.927Z,7.30
2023-04-05T08:23:32.711Z,7.40
2023-04-05T08:25:59.508Z,7.50
2023-04-05T08:28:26.230Z,7.60
2023-04-05T08:30:57.613Z,7.70
2023-04-05T08:33:26.194Z,7.90
2023-04-05T08:35:53.140Z,8.00
2023-04-05T08:38:19.885Z,8.10
2023-04-05T08:40:47.861Z,8.30
2023-04-05T08:43:33.870Z,8.30
2023-04-05T08:46:02.056Z,8.50
2023-04-05T08:48:32.555Z,8.60
2023-04-05T08:50:59.268Z,8.70
2023-04-05T08:53:26.822Z,8.80
2023-04-05T08:55:56.644Z,8.90
2023-04-05T08:58:25.515Z,9.00
2023-04-05T09:00:52.875Z,9.20
2023-04-05T09:03:26.770Z,9.30
2023-04-05T09:05:55.144Z,9.50
2023-04-05T09:08:21.882Z,9.60
2023-04-05T09:10:51.709Z,9.70
2023-04-05T09:13:19.198Z,9.80
2023-04-05T09:15:48.604Z,9.80
2023-04-05T09:18:26.254Z,9.90
2023-04-05T09:21:03.817Z,9.90
2023-04-05T09:23:31.663Z,10.00
2023-04-05T09:26:02.727Z,10.10
2023-04-05T09:28:45.205Z,10.10
2023-04-05T09:31:34.351Z,10.20
2023-04-05T09:34:06.448Z,10.30
2023-04-05T09:36:44.671Z,10.50
2023-04-05T09:39:11.563Z,10.50
2023-04-05T09:41:39.353Z,10.60
2023-04-05T09:44:06.212Z,10.70
2023-04-05T09:46:34.477Z,10.80
2023-04-05T09:49:01.912Z,10.80
2023-04-05T09:51:39.458Z,10.80
2023-04-05T09:54:09.477Z,10.80
2023-04-05T09:56:41.334Z,10.90
2023-04-05T09:59:12.602Z,11.00
2023-04-05T10:01:43.666Z,11.00
2023-04-05T10:04:11.096Z,11.10
2023-04-05T10:06:42.074Z,11.20
2023-04-05T10:09:11.219Z,11.20
2023-04-05T10:11:39.062Z,11.30
2023-04-05T10:14:09.234Z,11.40
2023-04-05T10:16:49.654Z,11.40
2023-04-05T10:19:27.500Z,11.50
2023-04-05T10:21:55.601Z,11.60
2023-04-05T10:24:57.733Z,11.60
2023-04-05T10:28:01.808Z,11.70
2023-04-05T10:30:43.550Z,11.70
2023-04-05T10:33:38.875Z,11.80
2023-04-05T10:36:13.292Z,11.90
2023-04-05T10:39:04.456Z,11.90
2023-04-05T10:41:43.325Z,11.90
2023-04-05T10:44:22.527Z,11.90
2023-04-05T10:46:54.843Z,11.90
2023-04-05T10:49:39.532Z,11.90
2023-04-05T10:52:07.124Z,12.00
2023-04-05T10:54:36.620Z,12.00
2023-04-05T10:57:09.127Z,12.20
2023-04-05T10:59:42.347Z,12.30
2023-04-05T11:02:09.454Z,12.30
2023-04-05T11:04:38.151Z,12.40
2023-04-05T11:07:17.809Z,12.40
2023-04-05T11:09:52.787Z,12.50
2023-04-05T11:12:19.780Z,12.50
2023-04-05T11:14:46.519Z,12.50
2023-04-05T11:17:29.834Z,12.50
2023-04-05T11:20:04.690Z,12.60
2023-04-05T11:22:31.977Z,12.60
2023-04-05T11:25:03.203Z,12.60
2023-04-05T11:27:30.191Z,12.60
2023-04-05T11:29:58.696Z,12.60
2023-04-05T11:32:43.085Z,12.70
2023-04-05T11:35:22.956Z,12.80
2023-04-05T11:38:07.195Z,12.80
2023-04-05T11:40:36.459Z,12.80
2023-04-05T11:43:12.088Z,12.80
2023-04-05T11:45:40.792Z,12.90
2023-04-05T11:48:13.483Z,13.00
2023-04-05T11:50:45.500Z,13.10
2023-04-05T11:53:17.018Z,13.30
2023-04-05T11:55:53.603Z,13.40
2023-04-05T11:58:22.770Z,13.30
2023-04-05T12:01:03.994Z,13.30
2023-04-05T12:03:31.573Z,13.30
2023-04-05T12:06:01.012Z,13.40
2023-04-05T12:08:56.027Z,13.60
2023-04-05T12:11:27.582Z,13.70
2023-04-05T12:13:59.044Z,13.80
2023-04-05T12:16:26.540Z,13.80
2023-04-05T12:19:00.079Z,13.80
2023-04-05T12:21:28.012Z,13.80
2023-04-05T12:23:55.637Z,13.70
2023-04-05T12:26:23.226Z,13.80
2023-04-05T12:28:58.666Z,13.80
2023-04-05T12:31:46.875Z,13.90
2023-04-05T12:34:14.937Z,13.90
2023-04-05T12:36:48.917Z,14.00
2023-04-05T12:39:17.212Z,14.00
2023-04-05T12:41:43.970Z,14.00
2023-04-05T12:44:28.267Z,13.90
2023-04-05T12:47:03.434Z,13.90
2023-04-05T12:49:35.578Z,13.90
2023-04-05T12:52:02.958Z,13.90
2023-04-05T12:54:31.123Z,14.10
2023-04-05T12:56:58.189Z,14.20
2023-04-05T12:59:26.335Z,14.20
2023-04-05T13:01:53.141Z,14.20
2023-04-05T13:04:20.049Z,14.20
2023-04-05T13:06:50.251Z,14.20
2023-04-05T13:09:17.405Z,14.30
2023-04-05T13:11:44.653Z,14.20
2023-04-05T13:14:11.482Z,14.20
2023-04-05T13:16:38.271Z,14.30
2023-04-05T13:19:05.381Z,14.40
2023-04-05T13:21:32.803Z,14.50
2023-04-05T13:23:59.522Z,14.50
2023-04-05T13:26:26.318Z,14.20
2023-04-05T13:28:53.089Z,14.00
2023-04-05T13:31:20.014Z,14.00
2023-04-05T13:33:46.760Z,14.00
2023-04-05T13:36:13.638Z,14.00
2023-04-05T13:38:41.510Z,13.90
2023-04-05T13:41:08.254Z,13.80
2023-04-05T13:43:35.055Z,13.80
2023-04-05T13:46:01.824Z,14.00
2023-04-05T13:48:29.399Z,14.20
2023-04-05T13:50:56.111Z,14.40
2023-04-05T13:53:23.164Z,14.50
2023-04-05T13:55:49.903Z,14.80
2023-04-05T13:58:16.652Z,14.80
2023-04-05T14:00:43.695Z,14.50
2023-04-05T14:03:10.924Z,14.20
2023-04-05T14:05:37.983Z,14.00
2023-04-05T14:08:04.688Z,14.00
2023-04-05T14:10:32.415Z,14.10
2023-04-05T14:12:59.201Z,14.40
2023-04-05T14:15:25.970Z,14.50
2023-04-05T14:17:52.820Z,14.70
2023-04-05T14:20:19.531Z,14.90
2023-04-05T14:22:46.228Z,15.10
2023-04-05T14:25:13.045Z,15.40
2023-04-05T14:27:42.431Z,15.50
2023-04-05T14:30:13.264Z,15.60
2023-04-05T14:32:40.164Z,15.80
2023-04-05T14:35:07.538Z,16.10
2023-04-05T14:37:34.271Z,16.20
2023-04-05T14:40:01.294Z,16.20
2023-04-05T14:42:40.928Z,16.10
2023-04-05T14:45:12.260Z,16.10
2023-04-05T14:47:39.198Z,16.10
2023-04-05T14:50:07.743Z,16.20
2023-04-05T14:52:34.769Z,16.30
2023-04-05T14:55:01.469Z,16.50
2023-04-05T14:57:29.568Z,16.50
2023-04-05T14:59:56.245Z,16.70
2023-04-05T15:02:23.206Z,16.60
2023-04-05T15:04:50.054Z,16.70
2023-04-05T15:07:16.902Z,16.40
2023-04-05T15:09:43.623Z,16.20
2023-04-05T15:12:10.405Z,16.20
2023-04-05T15:14:37.165Z,16.40
2023-04-05T15:17:04.177Z,16.60
2023-04-05T15:19:31.090Z,16.90
2023-04-05T15:21:57.844Z,17.50
2023-04-05T15:24:24.628Z,19.10
2023-04-05T15:26:51.375Z,21.10
2023-04-05T15:29:18.063Z,22.40
2023-04-05T15:31:44.942Z,23.40
2023-04-05T15:34:11.686Z,24.80
2023-04-05T15:36:38.449Z,25.70
2023-04-05T15:39:05.402Z,26.30
2023-04-05T15:41:33.636Z,27.10
2023-04-05T15:44:01.044Z,27.70
2023-04-05T15:46:30.434Z,28.40
2023-04-05T15:48:57.182Z,29.50
2023-04-05T15:51:24.131Z,30.20
2023-04-05T15:53:51.580Z,30.30
2023-04-05T15:56:18.553Z,30.30
2023-04-05T15:58:45.524Z,30.20
2023-04-05T16:01:12.513Z,29.80
2023-04-05T16:03:39.767Z,29.80
2023-04-05T16:06:06.865Z,30.60
2023-04-05T16:08:33.941Z,31.40
2023-04-05T16:11:01.067Z,31.90
2023-04-05T16:13:27.990Z,32.30
2023-04-05T16:15:54.717Z,32.30
2023-04-05T16:18:23.254Z,32.50
2023-04-05T16:20:50.600Z,32.70
2023-04-05T16:23:17.345Z,32.50
2023-04-05T16:25:44.146Z,32.60
2023-04-05T16:28:10.941Z,32.50
2023-04-05T16:30:37.706Z,32.70
2023-04-05T16:33:05.168Z,33.00
2023-04-05T16:35:32.108Z,33.10
2023-04-05T16:37:59.073Z,33.10
2023-04-05T16:40:26.076Z,32.80
2023-04-05T16:42:54.307Z,32.40
2023-04-05T16:45:21.510Z,31.50
2023-04-05T16:47:48.464Z,30.70
2023-04-05T16:50:15.629Z,30.00
2023-04-05T16:52:45.751Z,29.00
2023-04-05T16:55:12.602Z,28.00
2023-04-05T16:57:39.352Z,27.10
2023-04-05T17:00:08.121Z,26.00
2023-04-05T17:02:35.005Z,25.00
2023-04-05T17:05:01.796Z,24.10
2023-04-05T17:07:29.648Z,23.20
2023-04-05T17:09:57.961Z,22.30
2023-04-05T17:12:24.671Z,21.50
2023-04-05T17:14:51.408Z,20.90
2023-04-05T17:17:21.318Z,20.30
2023-04-05T17:19:48.368Z,19.90
2023-04-05T17:22:24.046Z,19.60
2023-04-05T17:24:50.889Z,19.50
2023-04-05T17:27:20.928Z,19.20
2023-04-05T17:29:47.678Z,18.80
2023-04-05T17:32:14.504Z,18.50
2023-04-05T17:34:41.324Z,18.10
2023-04-05T17:37:08.043Z,17.80
2023-04-05T17:39:34.727Z,17.30
2023-04-05T17:42:01.391Z,16.70
2023-04-05T17:44:30.186Z,16.10
2023-04-05T17:47:05.933Z,15.40
2023-04-05T17:49:37.503Z,14.90
2023-04-05T17:52:05.503Z,14.40
2023-04-05T17:54:38.600Z,14.00
2023-04-05T17:57:06.494Z,13.70
2023-04-05T17:59:47.889Z,13.30
2023-04-05T18:02:25.083Z,12.90
2023-04-05T18:04:52.039Z,12.40
2023-04-05T18:07:18.868Z,11.90
2023-04-05T18:09:45.684Z,11.50
2023-04-05T18:12:12.884Z,11.10
2023-04-05T18:14:39.769Z,10.70
2023-04-05T18:17:07.886Z,10.40
2023-04-05T18:19:34.859Z,10.00
2023-04-05T18:22:01.750Z,9.60
2023-04-05T18:24:29.753Z,9.30
2023-04-05T18:27:02.082Z,9.00
2023-04-05T18:29:30.544Z,8.70
2023-04-05T18:31:57.364Z,8.40
2023-04-05T18:34:24.472Z,8.20
2023-04-05T18:36:55.418Z,8.00
2023-04-05T18:39:22.157Z,7.80
2023-04-05T18:41:48.879Z,7.70
2023-04-05T18:44:16.016Z,7.60
2023-04-05T18:46:42.861Z,7.40
2023-04-05T18:49:09.901Z,7.30
2023-04-05T18:51:37.317Z,7.20
2023-04-05T18:54:04.296Z,7.10
2023-04-05T18:56:31.354Z,7.00
2023-04-05T18:58:58.156Z,6.90
2023-04-05T19:01:25.068Z,6.80
2023-04-05T19:03:52.000Z,6.70
2023-04-05T19:06:18.753Z,6.70
2023-04-05T19:08:47.877Z,6.60
2023-04-05T19:11:15.071Z,6.50
2023-04-05T19:13:42.163Z,6.40
2023-04-05T19:16:08.996Z,6.30
2023-04-05T19:18:40.929Z,6.20
2023-04-05T19:21:08.792Z,6.20
2023-04-05T19:23:35.525Z,6.10
2023-04-05T19:26:02.369Z,6.10
2023-04-05T19:28:29.297Z,6.00
2023-04-05T19:30:56.787Z,6.00
2023-04-05T19:33:23.601Z,5.90
2023-04-05T19:35:51.265Z,5.90
2023-04-05T19:38:20.228Z,5.90
2023-04-05T19:40:46.896Z,5.80
2023-04-05T19:43:13.629Z,5.80
2023-04-05T19:45:40.852Z,5.80
2023-04-05T19:48:44.053Z,5.80
2023-04-05T19:51:14.149Z,5.70
2023-04-05T19:53:48.608Z,5.60
2023-04-05T19:56:22.901Z,5.50
2023-04-05T19:59:14.591Z,5.40
2023-04-05T20:01:47.919Z,5.40
2023-04-05T20:04:19.206Z,5.30
2023-04-05T20:06:52.805Z,5.30
2023-04-05T20:09:20.754Z,5.20
2023-04-05T20:12:04.175Z,5.20
2023-04-05T20:14:48.879Z,5.10
2023-04-05T20:17:18.643Z,5.10
2023-04-05T20:20:00.783Z,5.00
2023-04-05T20:22:32.695Z,5.00
2023-04-05T20:24:59.418Z,5.00
2023-04-05T20:27:26.502Z,5.00
2023-04-05T20:29:54.145Z,4.90
2023-04-05T20:32:25.022Z,4.90
2023-04-05T20:34:52.022Z,4.80
2023-04-05T20:37:18.725Z,4.70
2023-04-05T20:39:45.502Z,4.60
2023-04-05T20:42:12.208Z,4.60
2023-04-05T20:44:39.058Z,4.50
2023-04-05T20:47:06.002Z,4.40
2023-04-05T20:49:32.693Z,4.30
2023-04-05T20:52:08.792Z,4.20
2023-04-05T20:54:35.719Z,4.20
2023-04-05T20:57:02.490Z,4.10
2023-04-05T20:59:29.245Z,4.10
2023-04-05T21:01:56.146Z,4.00
2023-04-05T21:04:22.982Z,4.00
2023-04-05T21:06:49.920Z,3.90
2023-04-05T21:09:16.669Z,3.80
2023-04-05T21:11:43.405Z,3.80
2023-04-05T21:14:10.181Z,3.70
2023-04-05T21:16:37.509Z,3.70
2023-04-05T21:19:04.367Z,3.60
2023-04-05T21:21:31.364Z,3.50
2023-04-05T21:23:58.087Z,3.40
2023-04-05T21:26:24.761Z,3.40
2023-04-05T21:28:51.425Z,3.30
2023-04-05T21:31:18.417Z,3.30
2023-04-05T21:33:45.132Z,3.30
2023-04-05T21:36:11.934Z,3.20
2023-04-05T21:38:38.693Z,3.20
2023-04-05T21:41:05.397Z,3.20
2023-04-05T21:43:32.118Z,3.20
2023-04-05T21:45:58.782Z,3.20
2023-04-05T21:48:27.787Z,3.10
2023-04-05T21:50:54.438Z,3.10
2023-04-05T21:53:21.176Z,3.10
2023-04-05T21:55:47.866Z,3.10
2023-04-05T21:58:14.559Z,3.10
2023-04-05T22:00:41.656Z,3.00
2023-04-05T22:03:08.537Z,3.00
2023-04-05T22:05:38.363Z,3.00
2023-04-05T22:08:06.533Z,3.00
2023-04-05T22:10:34.172Z,3.00
2023-04-05T22:13:01.075Z,2.90
2023-04-05T22:15:27.824Z,2.90
2023-04-05T22:17:54.526Z,2.80
2023-04-05T22:20:21.319Z,2.80
2023-04-05T22:22:48.069Z,2.70
2023-04-05T22:25:14.849Z,2.70
2023-04-05T22:27:41.635Z,2.70
2023-04-05T22:30:08.731Z,2.60
2023-04-05T22:32:35.808Z,2.60
2023-04-05T22:35:04.493Z,2.60
2023-04-05T22:37:35.748Z,2.50
2023-04-05T22:40:03.797Z,2.50
2023-04-05T22:42:30.753Z,2.50
2023-04-05T22:44:59.159Z,2.50
2023-04-05T22:47:26.238Z,2.40
2023-04-05T22:49:53.154Z,2.40
2023-04-05T22:52:20.402Z,2.40
2023-04-05T22:54:47.152Z,2.50
2023-04-05T22:57:13.953Z,2.50
2023-04-05T22:59:40.883Z,2.50
2023-04-05T23:02:07.804Z,2.40
2023-04-05T23:04:34.615Z,2.40
2023-04-05T23:07:01.435Z,2.50
2023-04-05T23:09:28.183Z,2.50
2023-04-05T23:11:54.945Z,2.40
2023-04-05T23:14:21.829Z,2.40
2023-04-05T23:16:48.604Z,2.40
2023-04-05T23:19:15.450Z,2.40
2023-04-05T23:21:42.257Z,2.40
2023-04-05T23:24:10.706Z,2.40
2023-04-05T23:26:37.601Z,2.30
2023-04-05T23:29:04.443Z,2.40
2023-04-05T23:31:31.146Z,2.40
2023-04-05T23:33:58.073Z,2.40
2023-04-05T23:36:24.908Z,2.40
2023-04-05T23:38:51.623Z,2.40
2023-04-05T23:41:18.329Z,2.40
2023-04-05T23:43:45.974Z,2.40
2023-04-05T23:46:13.232Z,2.40
2023-04-05T23:48:40.109Z,2.40
2023-04-05T23:51:06.974Z,2.40
2023-04-05T23:53:33.801Z,2.30
2023-04-05T23:56:00.501Z,2.40
2023-04-05T23:58:28.168Z,2.40
